Off Course — PG7534 — position and weather

sailwx.info

Track history (hours):
 
Tides and Currents Weather Stations Pressure Air Temp Water Temp Dewpoint Dewpoint Depression Visibility Wind Speed Wind Dir Waves Ship Positions

Off Course

Last reported at 2018-Jul-02 08:40 UTC. Time now 2018-Jul-17 09:29 UTC.
Position N 38°01' E 022°51'.
Warning: this ship's position is 15 days out of date.

Length 12 m.

Type: Sailing vessel. MMSI: 244820989.

Date/timePositionNaut miles runAvg speedWind from/ knotsBaromVisibWave heightAir tempDewpointWater temp
2018-Jul-02 08:40N 38°01' E 022°51'2 3.5
2018-Jul-02 08:06N 37°59' E 022°51'1 2.7
2018-Jul-02 07:49N 37°58' E 022°50'2 5.2
2018-Jul-02 07:30N 37°59' E 022°53'3 5.9
2018-Jul-02 06:57N 37°57' E 022°56'4 5.1
2018-Jul-02 06:13N 37°55' E 023°00'0 1.4
2018-Jul-02 06:00N 37°55' E 023°01'0 0.3
2018-Jul-02 05:30N 37°55' E 023°01'4 7.0
2018-Jul-02 05:00N 37°53' E 023°04'4 7.5
2018-Jul-02 04:30N 37°51' E 023°08'  
2018-Jun-29 11:21N 37°43' E 023°13'  
Track history (hours):
 
Tides and Currents Weather Stations Pressure Air Temp Water Temp Dewpoint Dewpoint Depression Visibility Wind Speed Wind Dir Waves Ship Positions

Off Course

Last reported at 2018-Jul-02 08:40 UTC. Time now 2018-Jul-17 09:29 UTC.
Position N 38°01' E 022°51'.
Warning: this ship's position is 15 days out of date.

Length 12 m.

Type: Sailing vessel. MMSI: 244820989.

Date/timePositionNaut miles runAvg speedWind from/ knotsBaromVisibWave heightAir tempDewpointWater temp
2018-Jul-02 08:40N 38°01' E 022°51'2 3.5
2018-Jul-02 08:06N 37°59' E 022°51'1 2.7
2018-Jul-02 07:49N 37°58' E 022°50'2 5.2
2018-Jul-02 07:30N 37°59' E 022°53'3 5.9
2018-Jul-02 06:57N 37°57' E 022°56'4 5.1
2018-Jul-02 06:13N 37°55' E 023°00'0 1.4
2018-Jul-02 06:00N 37°55' E 023°01'0 0.3
2018-Jul-02 05:30N 37°55' E 023°01'4 7.0
2018-Jul-02 05:00N 37°53' E 023°04'4 7.5
2018-Jul-02 04:30N 37°51' E 023°08'  
2018-Jun-29 11:21N 37°43' E 023°13'  

Dump ship's entire track history